sensor_id;sensor_type;location;lat;lon;timestamp;P1;durP1;ratioP1;P2;durP2;ratioP2
65665;SDS011;52365;47.464;18.976;2023-08-31T00:00:25;8.45;;;6.00;;
65665;SDS011;52365;47.464;18.976;2023-08-31T00:01:02;10.55;;;7.07;;
65665;SDS011;52365;47.464;18.976;2023-08-31T00:01:41;37.83;;;28.10;;
65665;SDS011;52365;47.464;18.976;2023-08-31T00:02:17;32.03;;;22.55;;
65665;SDS011;52365;47.464;18.976;2023-08-31T00:02:54;16.33;;;11.18;;
65665;SDS011;52365;47.464;18.976;2023-08-31T00:03:31;17.65;;;13.38;;
65665;SDS011;52365;47.464;18.976;2023-08-31T00:04:07;14.57;;;10.93;;
65665;SDS011;52365;47.464;18.976;2023-08-31T00:04:53;10.57;;;7.55;;
65665;SDS011;52365;47.464;18.976;2023-08-31T00:05:32;9.45;;;6.85;;
65665;SDS011;52365;47.464;18.976;2023-08-31T00:06:08;9.75;;;6.45;;
65665;SDS011;52365;47.464;18.976;2023-08-31T00:06:44;9.73;;;6.45;;
65665;SDS011;52365;47.464;18.976;2023-08-31T00:07:22;8.57;;;6.03;;
65665;SDS011;52365;47.464;18.976;2023-08-31T00:07:58;10.07;;;6.60;;
65665;SDS011;52365;47.464;18.976;2023-08-31T00:08:34;9.32;;;6.78;;
65665;SDS011;52365;47.464;18.976;2023-08-31T00:09:11;10.50;;;6.28;;
65665;SDS011;52365;47.464;18.976;2023-08-31T00:09:47;9.60;;;6.72;;
65665;SDS011;52365;47.464;18.976;2023-08-31T00:10:23;9.77;;;7.03;;
65665;SDS011;52365;47.464;18.976;2023-08-31T00:10:59;9.23;;;6.15;;
65665;SDS011;52365;47.464;18.976;2023-08-31T00:11:36;9.15;;;6.37;;
65665;SDS011;52365;47.464;18.976;2023-08-31T00:12:13;10.18;;;6.75;;
65665;SDS011;52365;47.464;18.976;2023-08-31T00:12:49;8.63;;;6.50;;
65665;SDS011;52365;47.464;18.976;2023-08-31T00:13:25;9.15;;;6.50;;
65665;SDS011;52365;47.464;18.976;2023-08-31T00:14:03;8.75;;;6.85;;
65665;SDS011;52365;47.464;18.976;2023-08-31T00:14:39;10.32;;;6.78;;
65665;SDS011;52365;47.464;18.976;2023-08-31T00:15:15;10.77;;;6.80;;
65665;SDS011;52365;47.464;18.976;2023-08-31T00:15:53;9.90;;;6.43;;
65665;SDS011;52365;47.464;18.976;2023-08-31T00:16:31;11.05;;;8.00;;
65665;SDS011;52365;47.464;18.976;2023-08-31T00:17:08;16.70;;;11.98;;
65665;SDS011;52365;47.464;18.976;2023-08-31T00:17:44;15.98;;;11.32;;
65665;SDS011;52365;47.464;18.976;2023-08-31T00:18:20;17.77;;;11.65;;
65665;SDS011;52365;47.464;18.976;2023-08-31T00:18:57;11.55;;;8.50;;
65665;SDS011;52365;47.464;18.976;2023-08-31T00:19:33;9.15;;;7.03;;
65665;SDS011;52365;47.464;18.976;2023-08-31T00:20:09;9.93;;;6.90;;
65665;SDS011;52365;47.464;18.976;2023-08-31T00:20:48;11.38;;;7.10;;
65665;SDS011;52365;47.464;18.976;2023-08-31T00:21:24;9.15;;;6.70;;
65665;SDS011;52365;47.464;18.976;2023-08-31T00:22:00;9.38;;;6.75;;
65665;SDS011;52365;47.464;18.976;2023-08-31T00:22:37;9.68;;;6.68;;
65665;SDS011;52365;47.464;18.976;2023-08-31T00:23:13;9.32;;;6.65;;
65665;SDS011;52365;47.464;18.976;2023-08-31T00:23:49;10.32;;;6.45;;
65665;SDS011;52365;47.464;18.976;2023-08-31T00:24:25;8.85;;;6.37;;
65665;SDS011;52365;47.464;18.976;2023-08-31T00:25:07;10.52;;;6.40;;
65665;SDS011;52365;47.464;18.976;2023-08-31T00:25:44;8.65;;;6.15;;
65665;SDS011;52365;47.464;18.976;2023-08-31T00:26:20;8.52;;;6.55;;
65665;SDS011;52365;47.464;18.976;2023-08-31T00:26:56;8.38;;;6.60;;
65665;SDS011;52365;47.464;18.976;2023-08-31T00:27:32;10.45;;;6.68;;
65665;SDS011;52365;47.464;18.976;2023-08-31T00:28:09;9.57;;;6.05;;
65665;SDS011;52365;47.464;18.976;2023-08-31T00:28:45;8.43;;;6.32;;
65665;SDS011;52365;47.464;18.976;2023-08-31T00:29:21;8.02;;;6.05;;
65665;SDS011;52365;47.464;18.976;2023-08-31T00:29:58;10.07;;;6.10;;
65665;SDS011;52365;47.464;18.976;2023-08-31T00:30:35;8.98;;;6.15;;
65665;SDS011;52365;47.464;18.976;2023-08-31T00:31:11;7.85;;;5.93;;
65665;SDS011;52365;47.464;18.976;2023-08-31T00:31:47;8.75;;;5.80;;
65665;SDS011;52365;47.464;18.976;2023-08-31T00:32:26;8.88;;;6.12;;
65665;SDS011;52365;47.464;18.976;2023-08-31T00:33:02;7.32;;;5.78;;
65665;SDS011;52365;47.464;18.976;2023-08-31T00:33:39;9.18;;;5.87;;
65665;SDS011;52365;47.464;18.976;2023-08-31T00:34:15;9.40;;;6.15;;
65665;SDS011;52365;47.464;18.976;2023-08-31T00:34:53;8.40;;;5.95;;
65665;SDS011;52365;47.464;18.976;2023-08-31T00:35:29;7.70;;;5.78;;
65665;SDS011;52365;47.464;18.976;2023-08-31T00:36:05;8.32;;;6.00;;
65665;SDS011;52365;47.464;18.976;2023-08-31T00:36:41;8.82;;;6.60;;
65665;SDS011;52365;47.464;18.976;2023-08-31T00:37:17;15.95;;;11.40;;
65665;SDS011;52365;47.464;18.976;2023-08-31T00:37:54;25.98;;;18.65;;
65665;SDS011;52365;47.464;18.976;2023-08-31T00:38:34;22.60;;;16.85;;
65665;SDS011;52365;47.464;18.976;2023-08-31T00:39:11;14.68;;;11.57;;
65665;SDS011;52365;47.464;18.976;2023-08-31T00:39:47;12.07;;;9.45;;
65665;SDS011;52365;47.464;18.976;2023-08-31T00:40:27;9.55;;;5.97;;
65665;SDS011;52365;47.464;18.976;2023-08-31T00:41:06;8.48;;;5.43;;
65665;SDS011;52365;47.464;18.976;2023-08-31T00:41:43;7.22;;;5.12;;
65665;SDS011;52365;47.464;18.976;2023-08-31T00:42:21;8.10;;;5.40;;
65665;SDS011;52365;47.464;18.976;2023-08-31T00:42:58;7.72;;;5.00;;
65665;SDS011;52365;47.464;18.976;2023-08-31T00:43:34;6.82;;;4.85;;
65665;SDS011;52365;47.464;18.976;2023-08-31T00:44:10;6.07;;;4.95;;
65665;SDS011;52365;47.464;18.976;2023-08-31T00:44:47;6.70;;;4.70;;
65665;SDS011;52365;47.464;18.976;2023-08-31T00:45:24;6.47;;;4.85;;
65665;SDS011;52365;47.464;18.976;2023-08-31T00:46:00;6.45;;;4.68;;
65665;SDS011;52365;47.464;18.976;2023-08-31T00:46:36;5.70;;;4.53;;
65665;SDS011;52365;47.464;18.976;2023-08-31T00:47:13;5.95;;;4.60;;
65665;SDS011;52365;47.464;18.976;2023-08-31T00:47:49;5.72;;;4.50;;
65665;SDS011;52365;47.464;18.976;2023-08-31T00:48:26;6.80;;;4.32;;
65665;SDS011;52365;47.464;18.976;2023-08-31T00:49:02;7.62;;;5.07;;
65665;SDS011;52365;47.464;18.976;2023-08-31T00:49:40;8.93;;;5.47;;
65665;SDS011;52365;47.464;18.976;2023-08-31T00:50:16;7.22;;;5.12;;
65665;SDS011;52365;47.464;18.976;2023-08-31T00:50:52;6.37;;;5.03;;
65665;SDS011;52365;47.464;18.976;2023-08-31T00:51:29;6.35;;;4.70;;
65665;SDS011;52365;47.464;18.976;2023-08-31T00:52:05;6.75;;;4.75;;
65665;SDS011;52365;47.464;18.976;2023-08-31T00:52:42;5.87;;;4.70;;
65665;SDS011;52365;47.464;18.976;2023-08-31T00:53:21;6.40;;;5.03;;
65665;SDS011;52365;47.464;18.976;2023-08-31T00:53:58;5.90;;;4.65;;
65665;SDS011;52365;47.464;18.976;2023-08-31T00:54:34;6.35;;;4.53;;
65665;SDS011;52365;47.464;18.976;2023-08-31T00:55:11;5.57;;;4.57;;
65665;SDS011;52365;47.464;18.976;2023-08-31T00:55:48;5.50;;;4.28;;
65665;SDS011;52365;47.464;18.976;2023-08-31T00:56:24;5.50;;;4.40;;
65665;SDS011;52365;47.464;18.976;2023-08-31T00:57:01;5.82;;;4.50;;
65665;SDS011;52365;47.464;18.976;2023-08-31T00:57:39;5.85;;;3.97;;
65665;SDS011;52365;47.464;18.976;2023-08-31T00:58:16;6.50;;;4.10;;
65665;SDS011;52365;47.464;18.976;2023-08-31T00:58:52;5.25;;;3.78;;
65665;SDS011;52365;47.464;18.976;2023-08-31T00:59:30;5.07;;;3.70;;
65665;SDS011;52365;47.464;18.976;2023-08-31T01:00:06;5.10;;;3.90;;
65665;SDS011;52365;47.464;18.976;2023-08-31T01:01:45;6.53;;;3.62;;
65665;SDS011;52365;47.464;18.976;2023-08-31T01:03:13;4.43;;;3.78;;
65665;SDS011;52365;47.464;18.976;2023-08-31T01:04:15;4.30;;;3.70;;
65665;SDS011;52365;47.464;18.976;2023-08-31T01:06:02;4.25;;;3.58;;
65665;SDS011;52365;47.464;18.976;2023-08-31T01:06:54;4.37;;;3.30;;
65665;SDS011;52365;47.464;18.976;2023-08-31T01:07:38;3.75;;;3.30;;
65665;SDS011;52365;47.464;18.976;2023-08-31T01:09:08;5.12;;;3.50;;
65665;SDS011;52365;47.464;18.976;2023-08-31T01:10:11;4.87;;;3.97;;
65665;SDS011;52365;47.464;18.976;2023-08-31T01:12:41;6.00;;;4.50;;
65665;SDS011;52365;47.464;18.976;2023-08-31T01:13:24;5.93;;;4.70;;
65665;SDS011;52365;47.464;18.976;2023-08-31T01:14:01;6.18;;;4.37;;
65665;SDS011;52365;47.464;18.976;2023-08-31T01:14:50;6.97;;;4.97;;
65665;SDS011;52365;47.464;18.976;2023-08-31T01:15:35;7.28;;;5.10;;
65665;SDS011;52365;47.464;18.976;2023-08-31T01:16:11;8.52;;;4.93;;
65665;SDS011;52365;47.464;18.976;2023-08-31T01:16:49;8.13;;;4.87;;
65665;SDS011;52365;47.464;18.976;2023-08-31T01:17:26;7.10;;;4.75;;
65665;SDS011;52365;47.464;18.976;2023-08-31T01:18:05;7.20;;;5.25;;
65665;SDS011;52365;47.464;18.976;2023-08-31T01:18:45;9.90;;;5.12;;
65665;SDS011;52365;47.464;18.976;2023-08-31T01:20:31;7.97;;;5.15;;
65665;SDS011;52365;47.464;18.976;2023-08-31T01:21:21;7.75;;;5.20;;
65665;SDS011;52365;47.464;18.976;2023-08-31T01:22:03;10.63;;;5.45;;
65665;SDS011;52365;47.464;18.976;2023-08-31T01:22:43;8.35;;;5.45;;
65665;SDS011;52365;47.464;18.976;2023-08-31T01:23:29;7.20;;;5.18;;
65665;SDS011;52365;47.464;18.976;2023-08-31T01:24:21;7.05;;;5.55;;
65665;SDS011;52365;47.464;18.976;2023-08-31T01:24:58;8.82;;;5.25;;
65665;SDS011;52365;47.464;18.976;2023-08-31T01:25:39;8.55;;;5.45;;
65665;SDS011;52365;47.464;18.976;2023-08-31T01:26:18;8.43;;;5.85;;
65665;SDS011;52365;47.464;18.976;2023-08-31T01:26:58;7.82;;;5.57;;
65665;SDS011;52365;47.464;18.976;2023-08-31T01:27:34;8.23;;;5.35;;
65665;SDS011;52365;47.464;18.976;2023-08-31T01:28:12;7.37;;;5.70;;
65665;SDS011;52365;47.464;18.976;2023-08-31T01:28:48;8.38;;;5.68;;
65665;SDS011;52365;47.464;18.976;2023-08-31T01:29:25;7.87;;;5.57;;
65665;SDS011;52365;47.464;18.976;2023-08-31T01:30:02;8.63;;;6.07;;
65665;SDS011;52365;47.464;18.976;2023-08-31T01:30:39;8.90;;;5.57;;
65665;SDS011;52365;47.464;18.976;2023-08-31T01:31:16;7.93;;;5.70;;
65665;SDS011;52365;47.464;18.976;2023-08-31T01:31:52;9.65;;;5.80;;
65665;SDS011;52365;47.464;18.976;2023-08-31T01:32:29;8.52;;;5.60;;
65665;SDS011;52365;47.464;18.976;2023-08-31T01:33:05;9.40;;;6.10;;
65665;SDS011;52365;47.464;18.976;2023-08-31T01:33:41;7.68;;;5.70;;
65665;SDS011;52365;47.464;18.976;2023-08-31T01:34:17;7.93;;;5.68;;
65665;SDS011;52365;47.464;18.976;2023-08-31T01:34:53;9.50;;;5.68;;
65665;SDS011;52365;47.464;18.976;2023-08-31T01:35:30;10.35;;;6.35;;
65665;SDS011;52365;47.464;18.976;2023-08-31T01:37:03;7.32;;;5.45;;
65665;SDS011;52365;47.464;18.976;2023-08-31T01:37:52;9.18;;;5.53;;
65665;SDS011;52365;47.464;18.976;2023-08-31T01:38:31;7.47;;;5.10;;
65665;SDS011;52365;47.464;18.976;2023-08-31T01:39:56;8.05;;;5.35;;
65665;SDS011;52365;47.464;18.976;2023-08-31T01:41:16;8.80;;;6.00;;
65665;SDS011;52365;47.464;18.976;2023-08-31T01:41:58;8.40;;;6.12;;
65665;SDS011;52365;47.464;18.976;2023-08-31T01:42:38;9.07;;;6.05;;
65665;SDS011;52365;47.464;18.976;2023-08-31T01:43:17;9.10;;;6.03;;
65665;SDS011;52365;47.464;18.976;2023-08-31T01:43:54;9.30;;;5.85;;
65665;SDS011;52365;47.464;18.976;2023-08-31T01:44:32;7.70;;;5.53;;
65665;SDS011;52365;47.464;18.976;2023-08-31T01:45:11;8.30;;;5.50;;
65665;SDS011;52365;47.464;18.976;2023-08-31T01:45:51;8.98;;;5.15;;
65665;SDS011;52365;47.464;18.976;2023-08-31T01:46:27;7.45;;;4.90;;
65665;SDS011;52365;47.464;18.976;2023-08-31T01:47:05;6.75;;;5.20;;
65665;SDS011;52365;47.464;18.976;2023-08-31T01:47:42;8.00;;;5.10;;
65665;SDS011;52365;47.464;18.976;2023-08-31T01:48:19;6.97;;;4.87;;
65665;SDS011;52365;47.464;18.976;2023-08-31T01:48:55;5.68;;;4.40;;
65665;SDS011;52365;47.464;18.976;2023-08-31T01:49:37;6.05;;;4.95;;
65665;SDS011;52365;47.464;18.976;2023-08-31T01:50:14;7.00;;;4.50;;
65665;SDS011;52365;47.464;18.976;2023-08-31T01:50:50;6.43;;;4.55;;
65665;SDS011;52365;47.464;18.976;2023-08-31T01:51:26;6.78;;;4.43;;
65665;SDS011;52365;47.464;18.976;2023-08-31T01:52:02;5.68;;;4.32;;
65665;SDS011;52365;47.464;18.976;2023-08-31T01:52:38;5.70;;;4.30;;
65665;SDS011;52365;47.464;18.976;2023-08-31T01:53:14;6.05;;;4.68;;
65665;SDS011;52365;47.464;18.976;2023-08-31T01:53:50;5.97;;;4.10;;
65665;SDS011;52365;47.464;18.976;2023-08-31T01:54:27;6.50;;;4.50;;
65665;SDS011;52365;47.464;18.976;2023-08-31T01:55:03;7.90;;;4.65;;
65665;SDS011;52365;47.464;18.976;2023-08-31T01:55:41;7.05;;;4.70;;
65665;SDS011;52365;47.464;18.976;2023-08-31T01:56:17;7.68;;;5.03;;
65665;SDS011;52365;47.464;18.976;2023-08-31T01:56:53;8.95;;;5.53;;
65665;SDS011;52365;47.464;18.976;2023-08-31T01:57:29;7.37;;;4.75;;
65665;SDS011;52365;47.464;18.976;2023-08-31T01:58:05;8.80;;;5.20;;
65665;SDS011;52365;47.464;18.976;2023-08-31T01:58:41;7.30;;;5.00;;
65665;SDS011;52365;47.464;18.976;2023-08-31T01:59:17;8.35;;;5.40;;
65665;SDS011;52365;47.464;18.976;2023-08-31T01:59:53;6.85;;;4.87;;
65665;SDS011;52365;47.464;18.976;2023-08-31T02:00:29;6.95;;;4.60;;
65665;SDS011;52365;47.464;18.976;2023-08-31T02:01:10;7.43;;;4.90;;
65665;SDS011;52365;47.464;18.976;2023-08-31T02:01:46;6.57;;;4.82;;
65665;SDS011;52365;47.464;18.976;2023-08-31T02:02:22;8.23;;;4.82;;
65665;SDS011;52365;47.464;18.976;2023-08-31T02:02:58;7.62;;;4.97;;
65665;SDS011;52365;47.464;18.976;2023-08-31T02:03:34;6.32;;;4.57;;
65665;SDS011;52365;47.464;18.976;2023-08-31T02:04:10;6.68;;;4.62;;
65665;SDS011;52365;47.464;18.976;2023-08-31T02:04:46;6.93;;;4.60;;
65665;SDS011;52365;47.464;18.976;2023-08-31T02:05:22;6.20;;;4.65;;
65665;SDS011;52365;47.464;18.976;2023-08-31T02:05:58;6.00;;;4.43;;
65665;SDS011;52365;47.464;18.976;2023-08-31T02:06:34;5.90;;;4.62;;
65665;SDS011;52365;47.464;18.976;2023-08-31T02:07:10;6.50;;;4.47;;
65665;SDS011;52365;47.464;18.976;2023-08-31T02:07:46;5.87;;;4.35;;
65665;SDS011;52365;47.464;18.976;2023-08-31T02:08:22;6.05;;;4.47;;
65665;SDS011;52365;47.464;18.976;2023-08-31T02:08:59;6.37;;;4.35;;
65665;SDS011;52365;47.464;18.976;2023-08-31T02:09:35;5.85;;;4.35;;
65665;SDS011;52365;47.464;18.976;2023-08-31T02:10:11;5.03;;;4.00;;
65665;SDS011;52365;47.464;18.976;2023-08-31T02:10:47;5.47;;;4.40;;
65665;SDS011;52365;47.464;18.976;2023-08-31T02:11:24;4.70;;;4.22;;
65665;SDS011;52365;47.464;18.976;2023-08-31T02:12:00;5.25;;;4.07;;
65665;SDS011;52365;47.464;18.976;2023-08-31T02:12:36;4.90;;;4.03;;
65665;SDS011;52365;47.464;18.976;2023-08-31T02:13:13;5.72;;;4.05;;
65665;SDS011;52365;47.464;18.976;2023-08-31T02:13:51;5.40;;;4.10;;
65665;SDS011;52365;47.464;18.976;2023-08-31T02:14:29;5.68;;;4.22;;
65665;SDS011;52365;47.464;18.976;2023-08-31T02:15:05;5.37;;;4.20;;
65665;SDS011;52365;47.464;18.976;2023-08-31T02:15:42;5.25;;;4.05;;
65665;SDS011;52365;47.464;18.976;2023-08-31T02:16:19;5.12;;;3.92;;
65665;SDS011;52365;47.464;18.976;2023-08-31T02:16:55;6.18;;;4.20;;
65665;SDS011;52365;47.464;18.976;2023-08-31T02:17:31;5.10;;;4.12;;
65665;SDS011;52365;47.464;18.976;2023-08-31T02:18:07;5.15;;;4.10;;
65665;SDS011;52365;47.464;18.976;2023-08-31T02:18:43;6.40;;;4.20;;
65665;SDS011;52365;47.464;18.976;2023-08-31T02:19:19;5.45;;;3.97;;
65665;SDS011;52365;47.464;18.976;2023-08-31T02:19:56;6.70;;;4.30;;
65665;SDS011;52365;47.464;18.976;2023-08-31T02:20:33;5.75;;;4.30;;
65665;SDS011;52365;47.464;18.976;2023-08-31T02:21:09;5.97;;;4.30;;
65665;SDS011;52365;47.464;18.976;2023-08-31T02:21:46;4.85;;;3.97;;
65665;SDS011;52365;47.464;18.976;2023-08-31T02:22:22;5.82;;;4.57;;
65665;SDS011;52365;47.464;18.976;2023-08-31T02:22:58;5.62;;;4.03;;
65665;SDS011;52365;47.464;18.976;2023-08-31T02:23:34;7.07;;;4.22;;
65665;SDS011;52365;47.464;18.976;2023-08-31T02:24:10;7.72;;;4.50;;
65665;SDS011;52365;47.464;18.976;2023-08-31T02:24:46;5.85;;;4.20;;
65665;SDS011;52365;47.464;18.976;2023-08-31T02:25:22;7.00;;;4.60;;
65665;SDS011;52365;47.464;18.976;2023-08-31T02:25:58;6.82;;;5.00;;
65665;SDS011;52365;47.464;18.976;2023-08-31T02:26:37;6.03;;;4.05;;
65665;SDS011;52365;47.464;18.976;2023-08-31T02:27:13;7.18;;;4.72;;
65665;SDS011;52365;47.464;18.976;2023-08-31T02:27:49;5.55;;;4.25;;
65665;SDS011;52365;47.464;18.976;2023-08-31T02:28:25;7.78;;;4.90;;
65665;SDS011;52365;47.464;18.976;2023-08-31T02:29:01;6.80;;;4.87;;
65665;SDS011;52365;47.464;18.976;2023-08-31T02:29:38;6.95;;;4.60;;
65665;SDS011;52365;47.464;18.976;2023-08-31T02:30:14;6.90;;;4.55;;
65665;SDS011;52365;47.464;18.976;2023-08-31T02:30:57;6.18;;;4.70;;
65665;SDS011;52365;47.464;18.976;2023-08-31T02:31:34;8.73;;;4.80;;
65665;SDS011;52365;47.464;18.976;2023-08-31T02:32:10;7.60;;;4.80;;
65665;SDS011;52365;47.464;18.976;2023-08-31T02:32:46;6.03;;;4.53;;
65665;SDS011;52365;47.464;18.976;2023-08-31T02:33:22;6.45;;;4.70;;
65665;SDS011;52365;47.464;18.976;2023-08-31T02:33:58;8.30;;;4.68;;
65665;SDS011;52365;47.464;18.976;2023-08-31T02:34:34;6.93;;;4.78;;
65665;SDS011;52365;47.464;18.976;2023-08-31T02:35:11;8.65;;;4.85;;
65665;SDS011;52365;47.464;18.976;2023-08-31T02:35:48;5.87;;;4.47;;
65665;SDS011;52365;47.464;18.976;2023-08-31T02:36:24;6.80;;;4.70;;
65665;SDS011;52365;47.464;18.976;2023-08-31T02:37:00;8.52;;;4.68;;
65665;SDS011;52365;47.464;18.976;2023-08-31T02:37:36;6.62;;;4.53;;
65665;SDS011;52365;47.464;18.976;2023-08-31T02:38:12;6.93;;;4.40;;
65665;SDS011;52365;47.464;18.976;2023-08-31T02:38:48;7.60;;;4.72;;
65665;SDS011;52365;47.464;18.976;2023-08-31T02:39:26;6.03;;;4.60;;
65665;SDS011;52365;47.464;18.976;2023-08-31T02:40:02;6.18;;;4.40;;
65665;SDS011;52365;47.464;18.976;2023-08-31T02:40:38;5.50;;;4.40;;
65665;SDS011;52365;47.464;18.976;2023-08-31T02:41:14;6.27;;;4.50;;
65665;SDS011;52365;47.464;18.976;2023-08-31T02:41:50;5.20;;;4.30;;
65665;SDS011;52365;47.464;18.976;2023-08-31T02:42:26;6.90;;;4.80;;
65665;SDS011;52365;47.464;18.976;2023-08-31T02:43:02;6.97;;;4.67;;
65665;SDS011;52365;47.464;18.976;2023-08-31T02:43:39;6.57;;;4.43;;
65665;SDS011;52365;47.464;18.976;2023-08-31T02:44:16;5.55;;;4.20;;
65665;SDS011;52365;47.464;18.976;2023-08-31T02:44:53;5.72;;;3.92;;
65665;SDS011;52365;47.464;18.976;2023-08-31T02:45:29;6.87;;;4.65;;
65665;SDS011;52365;47.464;18.976;2023-08-31T02:46:05;6.25;;;4.57;;
65665;SDS011;52365;47.464;18.976;2023-08-31T02:46:41;5.03;;;4.10;;
65665;SDS011;52365;47.464;18.976;2023-08-31T02:47:17;5.30;;;3.90;;
65665;SDS011;52365;47.464;18.976;2023-08-31T02:47:53;5.72;;;3.80;;
65665;SDS011;52365;47.464;18.976;2023-08-31T02:48:31;6.10;;;3.90;;
65665;SDS011;52365;47.464;18.976;2023-08-31T02:49:08;4.68;;;3.60;;
65665;SDS011;52365;47.464;18.976;2023-08-31T02:49:44;5.07;;;3.70;;
65665;SDS011;52365;47.464;18.976;2023-08-31T02:50:20;5.07;;;3.80;;
65665;SDS011;52365;47.464;18.976;2023-08-31T02:50:56;4.72;;;3.95;;
65665;SDS011;52365;47.464;18.976;2023-08-31T02:51:34;5.47;;;4.30;;
65665;SDS011;52365;47.464;18.976;2023-08-31T02:52:10;5.65;;;4.25;;
65665;SDS011;52365;47.464;18.976;2023-08-31T02:52:46;7.18;;;4.80;;
65665;SDS011;52365;47.464;18.976;2023-08-31T02:53:22;6.85;;;4.80;;
65665;SDS011;52365;47.464;18.976;2023-08-31T02:53:58;6.87;;;4.70;;
65665;SDS011;52365;47.464;18.976;2023-08-31T02:54:34;8.55;;;4.70;;
65665;SDS011;52365;47.464;18.976;2023-08-31T02:55:10;6.75;;;4.87;;
65665;SDS011;52365;47.464;18.976;2023-08-31T02:55:46;6.40;;;4.60;;
65665;SDS011;52365;47.464;18.976;2023-08-31T02:56:22;6.82;;;4.87;;
65665;SDS011;52365;47.464;18.976;2023-08-31T02:56:58;7.95;;;5.07;;
65665;SDS011;52365;47.464;18.976;2023-08-31T02:57:35;7.35;;;5.05;;
65665;SDS011;52365;47.464;18.976;2023-08-31T02:58:11;7.07;;;5.00;;
65665;SDS011;52365;47.464;18.976;2023-08-31T02:58:47;6.40;;;4.65;;
65665;SDS011;52365;47.464;18.976;2023-08-31T02:59:24;7.87;;;5.00;;
65665;SDS011;52365;47.464;18.976;2023-08-31T03:00:00;6.90;;;4.60;;
65665;SDS011;52365;47.464;18.976;2023-08-31T03:00:36;7.78;;;5.10;;
65665;SDS011;52365;47.464;18.976;2023-08-31T03:01:15;6.62;;;5.05;;
65665;SDS011;52365;47.464;18.976;2023-08-31T03:01:51;7.70;;;4.93;;
65665;SDS011;52365;47.464;18.976;2023-08-31T03:02:27;7.68;;;5.12;;
65665;SDS011;52365;47.464;18.976;2023-08-31T03:03:03;8.07;;;5.03;;
65665;SDS011;52365;47.464;18.976;2023-08-31T03:03:40;7.45;;;5.10;;
65665;SDS011;52365;47.464;18.976;2023-08-31T03:04:17;8.07;;;5.30;;
65665;SDS011;52365;47.464;18.976;2023-08-31T03:04:53;7.70;;;5.22;;
65665;SDS011;52365;47.464;18.976;2023-08-31T03:05:30;6.93;;;5.30;;
65665;SDS011;52365;47.464;18.976;2023-08-31T03:06:07;7.03;;;4.95;;
65665;SDS011;52365;47.464;18.976;2023-08-31T03:06:44;7.05;;;5.32;;
65665;SDS011;52365;47.464;18.976;2023-08-31T03:07:21;7.28;;;5.40;;
65665;SDS011;52365;47.464;18.976;2023-08-31T03:07:57;6.90;;;5.12;;
65665;SDS011;52365;47.464;18.976;2023-08-31T03:08:33;7.20;;;5.20;;
65665;SDS011;52365;47.464;18.976;2023-08-31T03:09:10;7.22;;;5.18;;
65665;SDS011;52365;47.464;18.976;2023-08-31T03:09:49;7.20;;;5.15;;
65665;SDS011;52365;47.464;18.976;2023-08-31T03:10:26;6.32;;;4.72;;
65665;SDS011;52365;47.464;18.976;2023-08-31T03:11:05;7.32;;;4.93;;
65665;SDS011;52365;47.464;18.976;2023-08-31T03:11:41;7.65;;;5.22;;
65665;SDS011;52365;47.464;18.976;2023-08-31T03:12:17;6.62;;;4.90;;
65665;SDS011;52365;47.464;18.976;2023-08-31T03:12:53;6.90;;;4.82;;
65665;SDS011;52365;47.464;18.976;2023-08-31T03:13:30;6.25;;;4.82;;
65665;SDS011;52365;47.464;18.976;2023-08-31T03:14:06;7.55;;;4.80;;
65665;SDS011;52365;47.464;18.976;2023-08-31T03:14:45;6.43;;;4.80;;
65665;SDS011;52365;47.464;18.976;2023-08-31T03:15:21;6.82;;;5.00;;
65665;SDS011;52365;47.464;18.976;2023-08-31T03:15:57;7.90;;;5.00;;
65665;SDS011;52365;47.464;18.976;2023-08-31T03:16:33;8.45;;;4.90;;
65665;SDS011;52365;47.464;18.976;2023-08-31T03:17:09;8.20;;;4.78;;
65665;SDS011;52365;47.464;18.976;2023-08-31T03:17:45;6.75;;;4.85;;
65665;SDS011;52365;47.464;18.976;2023-08-31T03:18:21;6.70;;;5.00;;
65665;SDS011;52365;47.464;18.976;2023-08-31T03:18:57;6.47;;;5.07;;
65665;SDS011;52365;47.464;18.976;2023-08-31T03:19:33;7.35;;;4.72;;
65665;SDS011;52365;47.464;18.976;2023-08-31T03:20:09;8.02;;;5.20;;
65665;SDS011;52365;47.464;18.976;2023-08-31T03:20:46;7.78;;;4.80;;
65665;SDS011;52365;47.464;18.976;2023-08-31T03:21:22;6.55;;;4.80;;
65665;SDS011;52365;47.464;18.976;2023-08-31T03:21:58;7.20;;;4.87;;
65665;SDS011;52365;47.464;18.976;2023-08-31T03:22:34;5.93;;;4.40;;
65665;SDS011;52365;47.464;18.976;2023-08-31T03:23:10;6.72;;;4.60;;
65665;SDS011;52365;47.464;18.976;2023-08-31T03:23:46;7.32;;;4.68;;
65665;SDS011;52365;47.464;18.976;2023-08-31T03:24:22;7.28;;;4.93;;
65665;SDS011;52365;47.464;18.976;2023-08-31T03:24:59;5.75;;;4.30;;
65665;SDS011;52365;47.464;18.976;2023-08-31T03:25:35;6.85;;;4.72;;
65665;SDS011;52365;47.464;18.976;2023-08-31T03:26:11;6.45;;;4.93;;
65665;SDS011;52365;47.464;18.976;2023-08-31T03:26:47;6.10;;;4.53;;
65665;SDS011;52365;47.464;18.976;2023-08-31T03:27:23;6.30;;;4.87;;
65665;SDS011;52365;47.464;18.976;2023-08-31T03:27:59;6.07;;;4.70;;
65665;SDS011;52365;47.464;18.976;2023-08-31T03:28:35;7.75;;;4.72;;
65665;SDS011;52365;47.464;18.976;2023-08-31T03:29:11;7.03;;;4.95;;
65665;SDS011;52365;47.464;18.976;2023-08-31T03:29:47;8.30;;;5.10;;
65665;SDS011;52365;47.464;18.976;2023-08-31T03:30:23;8.13;;;4.85;;
65665;SDS011;52365;47.464;18.976;2023-08-31T03:30:59;6.28;;;4.75;;
65665;SDS011;52365;47.464;18.976;2023-08-31T03:31:37;9.05;;;4.87;;
65665;SDS011;52365;47.464;18.976;2023-08-31T03:32:13;8.55;;;4.90;;
65665;SDS011;52365;47.464;18.976;2023-08-31T03:32:49;6.12;;;4.40;;
65665;SDS011;52365;47.464;18.976;2023-08-31T03:33:25;7.40;;;5.03;;
65665;SDS011;52365;47.464;18.976;2023-08-31T03:34:03;7.55;;;4.95;;
65665;SDS011;52365;47.464;18.976;2023-08-31T03:34:39;6.80;;;5.18;;
65665;SDS011;52365;47.464;18.976;2023-08-31T03:35:15;6.30;;;4.85;;
65665;SDS011;52365;47.464;18.976;2023-08-31T03:35:51;7.25;;;4.95;;
65665;SDS011;52365;47.464;18.976;2023-08-31T03:36:27;7.95;;;4.90;;
65665;SDS011;52365;47.464;18.976;2023-08-31T03:37:03;8.10;;;4.70;;
65665;SDS011;52365;47.464;18.976;2023-08-31T03:37:39;9.32;;;5.20;;
65665;SDS011;52365;47.464;18.976;2023-08-31T03:38:15;6.72;;;5.30;;
65665;SDS011;52365;47.464;18.976;2023-08-31T03:38:51;6.75;;;5.00;;
65665;SDS011;52365;47.464;18.976;2023-08-31T03:39:27;6.43;;;4.78;;
65665;SDS011;52365;47.464;18.976;2023-08-31T03:40:04;7.35;;;4.70;;
65665;SDS011;52365;47.464;18.976;2023-08-31T03:40:42;6.87;;;5.03;;
65665;SDS011;52365;47.464;18.976;2023-08-31T03:41:18;6.25;;;4.72;;
65665;SDS011;52365;47.464;18.976;2023-08-31T03:41:54;6.22;;;4.95;;
65665;SDS011;52365;47.464;18.976;2023-08-31T03:42:30;6.95;;;4.97;;
65665;SDS011;52365;47.464;18.976;2023-08-31T03:43:06;7.37;;;4.97;;
65665;SDS011;52365;47.464;18.976;2023-08-31T03:43:42;6.15;;;4.72;;
65665;SDS011;52365;47.464;18.976;2023-08-31T03:44:19;7.93;;;4.87;;
65665;SDS011;52365;47.464;18.976;2023-08-31T03:44:56;6.78;;;5.03;;
65665;SDS011;52365;47.464;18.976;2023-08-31T03:45:32;6.47;;;4.78;;
65665;SDS011;52365;47.464;18.976;2023-08-31T03:46:08;7.45;;;4.70;;
65665;SDS011;52365;47.464;18.976;2023-08-31T03:46:44;6.03;;;4.60;;
65665;SDS011;52365;47.464;18.976;2023-08-31T03:47:20;6.47;;;4.60;;
65665;SDS011;52365;47.464;18.976;2023-08-31T03:47:56;6.93;;;4.82;;
65665;SDS011;52365;47.464;18.976;2023-08-31T03:48:32;6.20;;;4.70;;
65665;SDS011;52365;47.464;18.976;2023-08-31T03:49:08;6.18;;;4.15;;
65665;SDS011;52365;47.464;18.976;2023-08-31T03:49:45;5.28;;;4.20;;